Time;durP1;ratioP1;P1;durP2;ratioP2;P2;SDS_P1;SDS_P2;PMS_P1;PMS_P2;Temp;Humidity;BMP_temperature;BMP_pressure;BME280_temperature;BME280_humidity;BME280_pressure;Samples;Min_cycle;Max_cycle;Signal;HPM_P1;HPM_P2
2022/09/03 00:00:53;;;;;;;6.38;3.30;;;;;;;13.90;68.74;100814.84;1931938;29;20061;-77
2022/09/03 00:02:17;;;;;;;5.10;3.15;;;;;;;13.92;69.67;100817.38;1932063;29;20433;-77
2022/09/03 00:03:22;;;;;;;5.15;3.05;;;;;;;13.92;67.21;100817.38;1932178;29;20052;-76
2022/09/03 00:04:39;;;;;;;8.23;3.17;;;;;;;13.92;67.47;100817.38;1932534;29;20032;-78
2022/09/03 00:05:47;;;;;;;9.77;3.10;;;;;;;13.90;68.34;100814.84;1932007;29;20028;-77
2022/09/03 00:06:54;;;;;;;6.95;3.33;;;;;;;13.87;68.14;100820.28;1931903;29;20044;-79
2022/09/03 00:08:22;;;;;;;6.20;3.65;;;;;;;13.85;68.15;100816.03;1932465;29;20454;-77
2022/09/03 00:09:41;;;;;;;5.30;3.20;;;;;;;13.80;70.70;100818.06;1939878;29;20058;-78
2022/09/03 00:10:55;;;;;;;6.47;3.47;;;;;;;13.76;70.56;100820.03;1939372;29;20099;-79
2022/09/03 00:12:13;;;;;;;5.60;3.50;;;;;;;13.72;71.47;100815.91;1939494;29;20099;-77
2022/09/03 00:13:21;;;;;;;9.85;3.40;;;;;;;13.73;71.11;100817.59;1939891;29;20031;-77
2022/09/03 00:14:26;;;;;;;4.30;3.28;;;;;;;13.72;71.78;100810.66;1939880;29;20225;-80
2022/09/03 00:15:24;;;;;;;9.75;3.70;;;;;;;13.72;69.17;100811.50;1939891;29;20127;-77
2022/09/03 00:16:28;;;;;;;6.97;3.60;;;;;;;13.73;68.66;100807.09;1939246;29;20028;-76
2022/09/03 00:17:36;;;;;;;5.07;3.28;;;;;;;13.72;71.45;100813.28;1939287;29;20031;-77
2022/09/03 00:18:48;;;;;;;5.05;3.22;;;;;;;13.70;69.17;100812.50;1939168;29;20106;-77
2022/09/03 00:19:56;;;;;;;11.65;3.67;;;;;;;13.65;69.47;100808.38;1939450;29;20031;-77
2022/09/03 00:21:07;;;;;;;8.50;3.58;;;;;;;13.63;69.81;100812.00;1939769;29;20356;-77
2022/09/03 00:22:15;;;;;;;7.97;3.65;;;;;;;13.60;69.86;100812.19;1939765;29;20091;-77
2022/09/03 00:23:21;;;;;;;10.63;3.40;;;;;;;13.60;69.51;100809.56;1939811;29;20024;-77
2022/09/03 00:24:27;;;;;;;11.50;3.35;;;;;;;13.58;70.48;100812.25;1939817;29;20057;-77
2022/09/03 00:25:38;;;;;;;6.15;3.80;;;;;;;13.57;71.58;100810.56;1939251;29;20405;-78
2022/09/03 00:26:41;;;;;;;4.43;2.95;;;;;;;13.55;70.81;100814.22;1939084;29;20131;-79
2022/09/03 00:27:42;;;;;;;4.47;3.50;;;;;;;13.55;70.37;100815.03;1938957;29;20103;-78
2022/09/03 00:29:26;;;;;;;6.38;3.58;;;;;;;13.53;71.84;100819.53;1938797;29;20046;-79
2022/09/03 00:30:24;;;;;;;6.10;3.45;;;;;;;13.49;71.88;100815.41;1935120;29;20131;-79
2022/09/03 00:31:28;;;;;;;5.93;3.40;;;;;;;13.49;70.53;100815.41;1939158;29;20027;-77
2022/09/03 00:32:57;;;;;;;6.15;3.00;;;;;;;13.48;72.65;100808.44;1938949;29;20036;-79
2022/09/03 00:34:04;;;;;;;6.25;3.50;;;;;;;13.44;70.84;100806.94;1938724;29;20034;-77
2022/09/03 00:35:07;;;;;;;10.27;3.38;;;;;;;13.42;71.18;100814.00;1938689;29;20103;-78
2022/09/03 00:36:24;;;;;;;4.65;3.25;;;;;;;13.41;73.44;100815.78;1938648;29;20024;-77
2022/09/03 00:37:22;;;;;;;5.22;3.30;;;;;;;13.41;71.46;100812.34;1938785;29;20081;-77
2022/09/03 00:38:21;;;;;;;8.80;3.72;;;;;;;13.42;70.52;100816.63;1939238;29;20043;-78
2022/09/03 00:39:23;;;;;;;7.05;3.30;;;;;;;13.41;70.47;100822.81;1939220;29;20131;-78
2022/09/03 00:40:44;;;;;;;4.80;2.97;;;;;;;13.38;73.42;100816.78;1938716;29;20497;-77
2022/09/03 00:42:09;;;;;;;7.95;3.15;;;;;;;13.30;73.77;100816.38;1938834;29;20032;-80
2022/09/03 00:43:46;;;;;;;7.28;3.30;;;;;;;13.27;74.69;100806.91;1939247;29;20027;-78
2022/09/03 00:45:10;;;;;;;5.22;2.90;;;;;;;13.26;71.17;100820.09;1939287;29;20060;-78
2022/09/03 00:46:23;;;;;;;8.23;3.28;;;;;;;13.25;74.17;100813.16;1939033;29;20482;-78
2022/09/03 00:47:53;;;;;;;6.03;3.33;;;;;;;13.26;72.50;100820.09;1931231;29;20127;-78
2022/09/03 00:49:06;;;;;;;4.78;3.05;;;;;;;13.21;75.23;100816.88;1934686;29;20069;-78
2022/09/03 00:50:37;;;;;;;6.45;3.30;;;;;;;13.22;74.67;100813.34;1939202;29;20400;-77
2022/09/03 00:52:02;;;;;;;6.32;3.20;;;;;;;13.20;72.97;100818.66;1938669;29;20046;-79
2022/09/03 00:53:41;;;;;;;8.60;3.60;;;;;;;13.20;72.64;100812.56;1938636;29;20118;-77
2022/09/03 00:55:23;;;;;;;9.52;3.33;;;;;;;13.14;73.58;100811.97;1938620;29;20122;-79
2022/09/03 00:57:00;;;;;;;8.80;3.75;;;;;;;13.12;74.23;100815.59;1939129;29;20039;-78
2022/09/03 00:58:24;;;;;;;4.70;2.90;;;;;;;13.12;74.87;100812.97;1939043;29;20051;-79
2022/09/03 00:59:57;;;;;;;6.00;3.00;;;;;;;13.07;73.77;100810.59;1938735;29;20466;-79
2022/09/03 01:00:55;;;;;;;5.03;3.05;;;;;;;13.08;73.28;100812.31;1932841;29;20043;-78
2022/09/03 01:02:04;;;;;;;5.32;3.15;;;;;;;13.13;72.36;100806.81;1940241;29;20043;-78
2022/09/03 01:03:14;;;;;;;6.68;3.10;;;;;;;13.12;72.13;100808.59;1940744;29;20030;-77
2022/09/03 01:04:37;;;;;;;5.82;2.97;;;;;;;13.12;74.67;100808.59;1932569;29;20029;-79
2022/09/03 01:06:14;;;;;;;4.95;2.90;;;;;;;13.08;75.86;100804.44;1935055;29;20034;-78
2022/09/03 01:07:47;;;;;;;4.45;3.03;;;;;;;13.04;73.00;100804.69;1939982;29;20036;-78
2022/09/03 01:09:13;;;;;;;5.88;3.25;;;;;;;13.05;74.60;100806.38;1939666;29;20055;-77
2022/09/03 01:10:57;;;;;;;5.70;3.00;;;;;;;13.04;75.65;100810.78;1940199;29;20115;-79
2022/09/03 01:12:16;;;;;;;6.88;2.65;;;;;;;13.01;74.95;100808.31;1940525;29;20028;-78
2022/09/03 01:13:22;;;;;;;5.15;2.92;;;;;;;13.02;75.26;100810.00;1932504;29;20032;-78
2022/09/03 01:14:41;;;;;;;7.75;3.22;;;;;;;13.03;76.71;100803.00;1931125;29;20819;-78
2022/09/03 01:16:31;;;;;;;5.88;3.17;;;;;;;13.02;75.22;100799.53;1940407;29;20070;-80
2022/09/03 01:17:43;;;;;;;3.47;3.17;;;;;;;12.99;73.74;100802.31;1934155;29;20258;-82
2022/09/03 01:19:08;;;;;;;4.72;3.10;;;;;;;13.04;75.87;100800.31;1947152;28;20019;-80
2022/09/03 01:20:19;;;;;;;6.07;3.20;;;;;;;13.02;72.91;100796.91;1944195;29;20168;-78
2022/09/03 01:22:07;;;;;;;9.30;3.08;;;;;;;13.05;75.06;100796.75;1938494;29;20031;-77
2022/09/03 01:23:34;;;;;;;5.97;3.17;;;;;;;12.99;74.14;100797.06;1939848;29;20115;-79
2022/09/03 01:25:14;;;;;;;5.72;3.53;;;;;;;13.00;73.38;100802.22;1939659;29;20043;-78
2022/09/03 01:26:41;;;;;;;6.00;3.55;;;;;;;13.05;74.87;100809.00;1938251;29;20062;-78
2022/09/03 01:28:12;;;;;;;6.85;3.47;;;;;;;13.07;75.30;100794.88;1939013;29;20711;-78
2022/09/03 01:29:38;;;;;;;4.82;3.00;;;;;;;13.03;74.69;100798.59;1946853;29;20126;-77
2022/09/03 01:30:47;;;;;;;6.40;3.30;;;;;;;13.05;74.38;100801.13;1941375;29;20383;-77
2022/09/03 01:32:05;;;;;;;6.95;3.42;;;;;;;13.07;73.15;100794.88;1938147;29;20416;-77
2022/09/03 01:33:24;;;;;;;5.40;3.20;;;;;;;13.05;72.58;100796.75;1939536;29;20036;-77
2022/09/03 01:34:46;;;;;;;8.35;3.63;;;;;;;13.06;76.34;100808.06;1939429;29;20054;-77
2022/09/03 01:35:51;;;;;;;4.35;3.25;;;;;;;13.04;72.53;100802.06;1939301;29;20073;-79
2022/09/03 01:37:08;;;;;;;10.82;4.00;;;;;;;13.05;74.04;100807.22;1940121;29;20601;-78
2022/09/03 01:38:46;;;;;;;7.70;3.85;;;;;;;13.05;72.78;100799.38;1940078;29;20454;-78
2022/09/03 01:40:02;;;;;;;3.95;3.58;;;;;;;13.03;73.15;100797.75;1917188;29;20044;-78
2022/09/03 01:43:14;;;;;;;7.50;3.35;;;;;;;13.01;73.47;100805.69;1940271;29;20363;-79
2022/09/03 01:44:51;;;;;;;5.72;3.55;;;;;;;12.98;73.78;100805.84;1939784;29;20068;-78
2022/09/03 01:46:12;;;;;;;5.88;3.80;;;;;;;13.04;74.17;100807.31;1947085;29;20041;-79
2022/09/03 01:47:50;;;;;;;9.05;3.78;;;;;;;13.04;75.20;100800.31;1944339;28;20047;-78
2022/09/03 01:49:15;;;;;;;7.97;3.60;;;;;;;13.06;74.89;100802.81;1939958;29;20103;-77
2022/09/03 01:50:25;;;;;;;5.72;3.75;;;;;;;13.03;75.25;100800.38;1946948;29;20050;-78
2022/09/03 01:51:28;;;;;;;6.43;3.95;;;;;;;13.01;72.88;100806.53;1945121;29;20031;-78
2022/09/03 01:53:11;;;;;;;8.85;3.90;;;;;;;13.03;74.03;100806.44;1939894;29;20035;-77
2022/09/03 01:54:52;;;;;;;9.30;4.07;;;;;;;13.01;76.13;100803.09;1946906;29;20536;-77
2022/09/03 01:56:16;;;;;;;7.00;3.97;;;;;;;12.98;75.35;100800.63;1939734;29;20027;-76
2022/09/03 01:57:34;;;;;;;8.48;4.18;;;;;;;13.06;74.82;100801.06;1947103;29;20027;-78
2022/09/03 01:58:45;;;;;;;8.90;4.20;;;;;;;13.06;75.15;100798.44;1943338;29;20038;-78
2022/09/03 02:00:12;;;;;;;6.28;4.20;;;;;;;13.18;74.88;100796.09;1947097;28;20484;-78
2022/09/03 02:01:23;;;;;;;8.80;4.30;;;;;;;13.08;73.73;100800.97;1942065;29;20126;-78
2022/09/03 02:02:25;;;;;;;9.05;4.15;;;;;;;13.10;74.25;100799.09;1940154;29;20032;-79
2022/09/03 02:03:24;;;;;;;8.02;4.28;;;;;;;13.11;73.20;100806.06;1933465;29;20554;-79
2022/09/03 02:04:25;;;;;;;8.27;4.67;;;;;;;13.14;72.32;100806.72;1932417;29;20032;-79
2022/09/03 02:05:28;;;;;;;8.70;4.55;;;;;;;13.26;71.83;100804.38;1939950;29;20294;-79
2022/09/03 02:06:28;;;;;;;8.25;4.53;;;;;;;13.26;72.02;100807.00;1939742;29;20028;-79
2022/09/03 02:07:33;;;;;;;9.02;5.07;;;;;;;13.42;70.73;100800.91;1939842;29;20455;-78
2022/09/03 02:08:30;;;;;;;8.15;4.65;;;;;;;13.39;70.95;100800.13;1938980;29;20081;-79
2022/09/03 02:09:28;;;;;;;8.43;4.50;;;;;;;13.45;71.52;100798.13;1939302;29;20086;-83
2022/09/03 02:10:32;;;;;;;7.57;4.85;;;;;;;13.43;73.38;100805.22;1946794;29;20020;-77
2022/09/03 02:11:30;;;;;;;11.55;4.90;;;;;;;13.46;70.98;100800.66;1946933;28;20117;-78
2022/09/03 02:12:35;;;;;;;9.88;4.60;;;;;;;13.46;70.92;100794.56;1939803;29;20086;-77
2022/09/03 02:13:43;;;;;;;9.13;5.25;;;;;;;13.44;70.71;100794.66;1939530;29;20087;-78
2022/09/03 02:14:41;;;;;;;10.00;5.15;;;;;;;13.39;71.19;100797.50;1939905;29;20027;-78
2022/09/03 02:15:44;;;;;;;8.48;4.60;;;;;;;13.41;71.75;100796.59;1939386;29;20028;-80
2022/09/03 02:16:43;;;;;;;8.73;5.15;;;;;;;13.36;72.25;100789.84;1939575;29;20360;-78
2022/09/03 02:17:45;;;;;;;10.85;5.32;;;;;;;13.35;71.43;100785.50;1939200;29;20036;-77
2022/09/03 02:18:53;;;;;;;9.07;5.38;;;;;;;13.34;73.26;100791.69;1939659;29;20055;-77
2022/09/03 02:19:50;;;;;;;8.00;4.90;;;;;;;13.38;73.23;100787.13;1946901;28;20031;-78
2022/09/03 02:20:52;;;;;;;10.02;5.10;;;;;;;13.39;71.40;100792.28;1947193;29;20023;-75
2022/09/03 02:21:54;;;;;;;9.18;5.20;;;;;;;13.45;71.32;100790.25;1939362;29;20028;-77
2022/09/03 02:22:53;;;;;;;13.82;5.78;;;;;;;13.42;70.98;100790.44;1939452;29;20122;-79
2022/09/03 02:23:51;;;;;;;8.48;5.30;;;;;;;13.39;71.37;100789.66;1946869;29;20491;-78
2022/09/03 02:24:49;;;;;;;12.60;5.85;;;;;;;13.41;72.86;100786.13;1947065;29;20028;-79
2022/09/03 02:25:55;;;;;;;7.25;4.90;;;;;;;13.35;71.82;100792.53;1940492;29;20072;-77
2022/09/03 02:26:53;;;;;;;8.70;5.10;;;;;;;13.33;71.98;100790.00;1940008;29;20035;-78
2022/09/03 02:27:52;;;;;;;10.95;5.50;;;;;;;13.30;72.49;100790.16;1947039;29;20506;-80
2022/09/03 02:28:53;;;;;;;10.07;5.75;;;;;;;13.26;73.39;100788.66;1939389;29;20381;-78
2022/09/03 02:29:50;;;;;;;9.90;5.57;;;;;;;13.22;73.02;100789.75;1932217;29;20355;-77
2022/09/03 02:30:48;;;;;;;11.43;5.63;;;;;;;13.17;74.07;100790.00;1939147;29;20032;-77
2022/09/03 02:31:45;;;;;;;9.70;5.50;;;;;;;13.17;73.47;100797.84;1947016;28;20134;-77
2022/09/03 02:32:43;;;;;;;14.82;6.70;;;;;;;13.22;72.16;100797.59;1946934;29;20039;-78
2022/09/03 02:33:45;;;;;;;11.32;6.45;;;;;;;13.24;72.84;100798.38;1940269;29;20111;-77
2022/09/03 02:34:43;;;;;;;11.70;6.10;;;;;;;13.22;72.91;100797.59;1939450;29;20050;-78
2022/09/03 02:35:41;;;;;;;10.68;5.88;;;;;;;13.18;74.30;100796.09;1939531;29;20046;-78
2022/09/03 02:36:44;;;;;;;11.27;5.55;;;;;;;13.16;74.56;100795.31;1939691;29;20069;-78
2022/09/03 02:37:42;;;;;;;11.27;5.65;;;;;;;13.12;73.03;100787.63;1939904;29;20046;-81
2022/09/03 02:38:45;;;;;;;10.30;6.13;;;;;;;13.11;73.70;100796.41;1939840;29;20066;-79
2022/09/03 02:39:43;;;;;;;13.98;6.30;;;;;;;13.16;72.75;100797.94;1939353;29;20054;-80
2022/09/03 02:40:40;;;;;;;10.77;6.43;;;;;;;13.17;74.03;100794.41;1939196;29;20043;-79
2022/09/03 02:41:38;;;;;;;9.43;6.25;;;;;;;13.10;73.20;100794.72;1939514;29;20547;-79
2022/09/03 02:42:36;;;;;;;10.98;6.10;;;;;;;13.09;74.20;100798.28;1939299;29;20032;-79
2022/09/03 02:43:46;;;;;;;12.77;6.07;;;;;;;13.14;73.71;100796.25;1939285;29;20071;-79
2022/09/03 02:44:49;;;;;;;;;;;;;;;13.10;74.16;100792.09;1947407;28;20070;-78
2022/09/03 02:45:54;;;;;;;9.77;6.82;;;;;;;13.11;72.89;100796.41;1946927;29;19914;-79
2022/09/03 02:47:09;;;;;;;16.83;7.97;;;;;;;13.11;73.46;100785.94;1939169;29;20031;-79
2022/09/03 02:48:10;;;;;;;13.85;6.80;;;;;;;13.04;74.35;100795.06;1946751;29;20027;-78
2022/09/03 02:49:07;;;;;;;13.15;7.22;;;;;;;13.06;73.41;100792.34;1946746;28;20045;-78
2022/09/03 02:50:05;;;;;;;11.80;7.22;;;;;;;13.05;72.92;100785.41;1939620;29;20051;-78
2022/09/03 02:51:03;;;;;;;13.43;6.90;;;;;;;13.06;72.98;100790.56;1939237;29;20448;-79
2022/09/03 02:52:08;;;;;;;14.73;7.03;;;;;;;13.06;73.71;100798.44;1946819;29;20190;-77
2022/09/03 02:53:05;;;;;;;13.23;7.45;;;;;;;13.08;73.05;100785.25;1938958;29;20027;-79
2022/09/03 02:54:03;;;;;;;17.27;7.10;;;;;;;13.13;72.48;100799.81;1932040;29;20046;-78
2022/09/03 02:55:01;;;;;;;15.35;7.45;;;;;;;13.17;73.12;100795.22;1938435;29;20070;-78
2022/09/03 02:56:00;;;;;;;13.18;7.00;;;;;;;13.14;73.97;100793.63;1939395;29;20043;-78
2022/09/03 02:56:58;;;;;;;13.38;7.22;;;;;;;13.15;72.47;100797.09;1939344;29;20472;-77
2022/09/03 02:57:56;;;;;;;15.70;7.55;;;;;;;13.18;72.14;100790.84;1946307;29;20114;-79
2022/09/03 02:58:53;;;;;;;18.20;7.43;;;;;;;13.15;72.86;100791.84;1940074;29;20363;-78
2022/09/03 02:59:51;;;;;;;12.98;6.82;;;;;;;13.11;74.08;100791.16;1932395;29;20129;-79
2022/09/03 03:00:48;;;;;;;12.40;7.57;;;;;;;13.10;73.00;100789.47;1939165;29;20051;-79
2022/09/03 03:01:45;;;;;;;13.63;7.43;;;;;;;13.08;73.80;100787.88;1945679;28;20060;-79
2022/09/03 03:02:43;;;;;;;16.10;7.35;;;;;;;13.09;74.34;100781.69;1940094;29;20121;-78
2022/09/03 03:03:40;;;;;;;18.05;7.82;;;;;;;13.13;73.21;100784.09;1939064;29;20078;-78
2022/09/03 03:04:38;;;;;;;12.52;7.68;;;;;;;13.08;74.63;100783.50;1939083;29;20031;-78
2022/09/03 03:05:55;;;;;;;10.80;6.68;;;;;;;13.10;75.05;100783.38;1938855;29;20036;-76
2022/09/03 03:06:52;;;;;;;12.80;7.60;;;;;;;13.08;73.82;100791.34;1931598;29;20026;-78
2022/09/03 03:07:50;;;;;;;12.93;7.60;;;;;;;13.14;74.99;100791.00;1931633;29;20028;-77
2022/09/03 03:08:49;;;;;;;13.63;8.00;;;;;;;13.19;73.16;100792.53;1938098;29;20063;-78
2022/09/03 03:09:46;;;;;;;15.20;7.78;;;;;;;13.19;73.71;100787.28;1946596;29;20128;-79
2022/09/03 03:10:44;;;;;;;13.10;7.45;;;;;;;13.19;72.68;100787.28;1946647;29;20039;-78
2022/09/03 03:11:42;;;;;;;16.02;7.82;;;;;;;13.27;71.96;100796.44;1939926;28;20043;-78
2022/09/03 03:12:39;;;;;;;15.07;8.10;;;;;;;13.35;71.57;100782.88;1939130;29;20044;-78
2022/09/03 03:13:36;;;;;;;15.40;7.80;;;;;;;13.39;71.21;100792.28;1939532;29;20088;-79
2022/09/03 03:14:34;;;;;;;14.57;7.90;;;;;;;13.42;71.12;100793.91;1939522;29;20036;-77
2022/09/03 03:15:31;;;;;;;14.07;8.02;;;;;;;13.41;70.97;100791.38;1939559;29;20115;-77
2022/09/03 03:16:28;;;;;;;12.38;7.80;;;;;;;13.39;70.80;100791.44;1939104;29;20040;-76
2022/09/03 03:17:26;;;;;;;15.05;7.78;;;;;;;13.43;70.89;100790.34;1939157;29;20126;-78
2022/09/03 03:18:23;;;;;;;18.98;8.05;;;;;;;13.43;70.35;100792.97;1939115;29;20359;-78
2022/09/03 03:19:21;;;;;;;15.80;7.90;;;;;;;13.43;71.56;100795.59;1938986;29;20035;-78
2022/09/03 03:20:18;;;;;;;15.40;8.27;;;;;;;13.39;70.08;100805.38;1939045;29;20474;-77
2022/09/03 03:21:18;;;;;;;18.02;7.93;;;;;;;13.54;69.89;100797.63;1939109;29;20578;-80
2022/09/03 03:22:15;;;;;;;11.15;7.28;;;;;;;13.50;70.20;100790.88;1938933;29;20110;-77
2022/09/03 03:23:13;;;;;;;17.70;8.30;;;;;;;13.45;70.66;100788.47;1939156;29;20047;-78
2022/09/03 03:24:10;;;;;;;13.93;7.53;;;;;;;13.48;70.02;100788.34;1946583;28;20407;-79
2022/09/03 03:25:08;;;;;;;12.95;7.68;;;;;;;13.45;70.46;100782.41;1946583;29;20042;-79
2022/09/03 03:26:12;;;;;;;13.38;7.80;;;;;;;13.44;72.13;100791.19;1939919;29;20032;-76
2022/09/03 03:27:12;;;;;;;13.38;7.35;;;;;;;13.37;71.00;100783.66;1939096;29;20043;-78
2022/09/03 03:28:09;;;;;;;13.23;7.50;;;;;;;13.32;71.26;100790.94;1938969;29;20075;-78
2022/09/03 03:29:07;;;;;;;17.10;8.18;;;;;;;13.28;73.12;100792.03;1938919;29;20053;-78
2022/09/03 03:30:08;;;;;;;16.45;7.53;;;;;;;13.23;72.37;100791.44;1938916;29;20036;-78
2022/09/03 03:31:16;;;;;;;13.40;7.70;;;;;;;13.23;73.22;100792.28;1946488;29;20488;-77
2022/09/03 03:32:14;;;;;;;12.57;7.30;;;;;;;13.19;72.37;100787.28;1946057;29;20370;-78
2022/09/03 03:33:11;;;;;;;14.13;7.38;;;;;;;13.13;73.04;100798.94;1938803;29;20059;-79
2022/09/03 03:34:09;;;;;;;14.15;7.40;;;;;;;13.12;73.25;100778.91;1939109;29;20118;-80
2022/09/03 03:35:06;;;;;;;12.75;7.45;;;;;;;13.13;72.63;100789.31;1946387;28;20102;-78
2022/09/03 03:36:09;;;;;;;15.27;7.90;;;;;;;13.12;73.01;100784.16;1946523;29;20027;-79
2022/09/03 03:37:06;;;;;;;14.68;7.85;;;;;;;13.08;73.04;100795.75;1939293;29;20036;-79
2022/09/03 03:38:04;;;;;;;12.95;7.72;;;;;;;13.06;72.42;100793.19;1939436;29;20042;-77
2022/09/03 03:39:02;;;;;;;14.05;7.05;;;;;;;13.05;72.54;100791.50;1939406;29;20040;-80
2022/09/03 03:39:59;;;;;;;12.95;7.50;;;;;;;13.03;73.05;100793.34;1946362;29;20462;-79
2022/09/03 03:40:56;;;;;;;11.25;7.55;;;;;;;13.02;72.75;100791.66;1946481;28;20031;-77
2022/09/03 03:41:55;;;;;;;10.85;7.28;;;;;;;13.02;73.36;100791.66;1940157;29;20098;-79
2022/09/03 03:42:53;;;;;;;14.45;7.53;;;;;;;13.00;72.97;100789.13;1939422;29;20296;-78
2022/09/03 03:43:56;;;;;;;14.40;7.25;;;;;;;12.94;75.37;100789.47;1938875;29;20450;-79
2022/09/03 03:44:53;;;;;;;12.50;7.35;;;;;;;12.86;74.35;100781.16;1938946;29;20590;-77
2022/09/03 03:45:58;;;;;;;21.38;7.63;;;;;;;12.90;73.52;100792.34;1938942;29;20043;-78
2022/09/03 03:46:55;;;;;;;12.95;6.32;;;;;;;12.87;74.39;100783.69;1939295;29;20023;-78
2022/09/03 03:47:57;;;;;;;14.73;6.75;;;;;;;12.87;73.88;100788.09;1939213;29;20059;-80
2022/09/03 03:48:54;;;;;;;11.77;6.60;;;;;;;12.90;74.38;100787.09;1939339;29;20435;-78
2022/09/03 03:49:52;;;;;;;14.73;6.97;;;;;;;12.93;73.33;100786.94;1939398;29;20099;-77
2022/09/03 03:50:49;;;;;;;12.57;7.30;;;;;;;13.00;72.38;100780.41;1939392;29;20439;-79
2022/09/03 03:51:47;;;;;;;15.63;6.70;;;;;;;13.09;72.22;100782.56;1938629;29;20114;-78
2022/09/03 03:52:44;;;;;;;15.43;7.10;;;;;;;13.10;72.42;100789.47;1946343;29;20399;-78
2022/09/03 03:53:42;;;;;;;20.65;7.38;;;;;;;13.07;73.73;100784.41;1946429;29;20058;-78
2022/09/03 03:54:40;;;;;;;16.15;7.07;;;;;;;13.06;73.04;100790.56;1940035;29;20460;-78
2022/09/03 03:55:38;;;;;;;19.30;7.35;;;;;;;13.11;72.42;100785.94;1938663;29;20069;-77
2022/09/03 03:56:35;;;;;;;12.75;6.53;;;;;;;13.17;71.93;100789.16;1946424;29;20502;-77
2022/09/03 03:57:32;;;;;;;13.75;7.53;;;;;;;13.13;72.20;100789.31;1946223;29;20039;-79
2022/09/03 03:58:32;;;;;;;13.00;7.15;;;;;;;13.16;71.97;100788.31;1939598;29;20039;-79
2022/09/03 03:59:29;;;;;;;12.93;7.30;;;;;;;13.23;71.99;100791.44;1939164;29;20049;-78
2022/09/03 04:00:26;;;;;;;13.45;6.60;;;;;;;13.20;71.38;100788.97;1939217;29;20451;-78
2022/09/03 04:01:26;;;;;;;11.35;6.65;;;;;;;13.17;72.25;100790.00;1938872;29;20413;-79
2022/09/03 04:02:24;;;;;;;12.60;6.70;;;;;;;13.16;73.26;100788.31;1938552;29;20327;-80
2022/09/03 04:03:21;;;;;;;12.52;7.20;;;;;;;13.13;72.38;100780.59;1938865;29;20456;-80
2022/09/03 04:04:19;;;;;;;12.57;6.60;;;;;;;13.14;72.28;100785.75;1938688;29;20028;-77
2022/09/03 04:05:16;;;;;;;11.23;6.43;;;;;;;13.13;72.53;100789.31;1939394;29;20027;-79
2022/09/03 04:06:18;;;;;;;15.27;6.80;;;;;;;13.14;72.46;100785.75;1939183;29;20031;-78
2022/09/03 04:07:15;;;;;;;12.40;7.10;;;;;;;13.18;71.67;100788.22;1938747;29;20035;-78
2022/09/03 04:08:12;;;;;;;13.63;6.05;;;;;;;13.16;72.07;100784.81;1945959;28;20038;-78
2022/09/03 04:09:10;;;;;;;18.05;7.50;;;;;;;13.14;72.04;100790.19;1946415;29;20094;-77
2022/09/03 04:10:08;;;;;;;9.30;6.65;;;;;;;13.13;72.20;100784.09;1939510;29;20047;-76
2022/09/03 04:11:11;;;;;;;11.43;6.88;;;;;;;13.05;75.03;100791.50;1932527;29;20508;-79
2022/09/03 04:12:08;;;;;;;10.80;6.38;;;;;;;12.98;73.77;100791.00;1939144;29;20036;-81
2022/09/03 04:13:06;;;;;;;11.55;6.45;;;;;;;12.98;73.76;100795.38;1946751;29;20031;-78
2022/09/03 04:14:04;;;;;;;13.50;6.45;;;;;;;12.98;73.38;100790.16;1940107;29;20119;-78
2022/09/03 04:15:01;;;;;;;18.52;7.10;;;;;;;13.06;72.74;100793.19;1939625;29;20045;-78
2022/09/03 04:16:03;;;;;;;14.20;6.85;;;;;;;13.17;73.10;100787.38;1939751;29;20038;-78
2022/09/03 04:17:04;;;;;;;12.70;6.50;;;;;;;13.16;72.45;100787.44;1939663;29;20443;-77
2022/09/03 04:18:01;;;;;;;13.23;6.50;;;;;;;13.14;73.21;100790.19;1939635;29;20031;-77
2022/09/03 04:18:59;;;;;;;12.05;6.15;;;;;;;13.03;75.06;100787.28;1939589;29;20089;-79
2022/09/03 04:19:56;;;;;;;12.30;6.40;;;;;;;13.03;74.39;100790.72;1939894;29;20037;-77
2022/09/03 04:21:03;;;;;;;12.88;6.55;;;;;;;13.05;73.11;100788.88;1946695;29;20023;-78
2022/09/03 04:22:01;;;;;;;9.88;5.93;;;;;;;13.03;73.01;100788.13;1946502;29;20722;-78
2022/09/03 04:23:03;;;;;;;11.55;6.35;;;;;;;13.00;74.13;100791.75;1946780;28;20045;-78
2022/09/03 04:24:04;;;;;;;11.45;6.38;;;;;;;13.02;73.21;100786.44;1946888;29;20102;-78
2022/09/03 04:25:02;;;;;;;12.60;6.57;;;;;;;13.00;73.07;100783.88;1939625;29;20391;-78
2022/09/03 04:25:59;;;;;;;12.23;6.25;;;;;;;13.00;73.09;100785.66;1939251;29;20042;-77
2022/09/03 04:26:57;;;;;;;10.35;6.18;;;;;;;12.95;73.93;100785.91;1939343;29;20031;-80
2022/09/03 04:27:54;;;;;;;9.88;5.90;;;;;;;12.90;74.95;100792.34;1939593;29;20023;-78
2022/09/03 04:28:52;;;;;;;13.63;5.80;;;;;;;12.93;73.65;100790.38;1939594;29;20288;-78
2022/09/03 04:29:49;;;;;;;11.90;6.43;;;;;;;12.92;73.79;100783.47;1939741;29;20081;-80
2022/09/03 04:30:47;;;;;;;12.98;6.65;;;;;;;12.92;74.07;100785.22;1939674;29;20051;-78
2022/09/03 04:32:52;;;;;;;13.73;6.40;;;;;;;12.85;75.04;100785.56;1939814;29;20046;-78
2022/09/03 04:33:01;;;;;;;11.32;5.90;;;;;;;12.81;74.84;100784.03;1939550;29;20455;-79
2022/09/03 04:33:59;;;;;;;13.45;6.05;;;;;;;12.77;75.97;100792.97;1939631;29;20066;-79
2022/09/03 04:34:56;;;;;;;16.15;6.28;;;;;;;12.77;74.70;100782.50;1940013;29;20055;-77
2022/09/03 04:36:12;;;;;;;9.77;5.80;;;;;;;12.78;74.38;100784.19;1941361;29;20034;-78
2022/09/03 04:37:09;;;;;;;11.98;6.03;;;;;;;12.79;74.44;100778.03;1941206;29;20497;-79
2022/09/03 04:38:06;;;;;;;10.48;6.03;;;;;;;12.79;74.37;100779.81;1941209;29;20035;-79
2022/09/03 04:39:04;;;;;;;13.18;6.20;;;;;;;12.74;74.84;100780.03;1948214;29;20122;-79
2022/09/03 04:40:02;;;;;;;10.55;6.00;;;;;;;12.77;74.04;100785.13;1948282;29;20721;-77
2022/09/03 04:41:01;;;;;;;9.75;6.10;;;;;;;12.78;73.86;100784.19;1940832;29;20063;-79
2022/09/03 04:41:58;;;;;;;10.48;6.65;;;;;;;12.78;73.75;100784.19;1940170;29;20067;-79
2022/09/03 04:42:58;;;;;;;9.68;5.38;;;;;;;12.78;74.37;100784.19;1940646;29;20099;-77
2022/09/03 04:43:58;;;;;;;12.20;5.95;;;;;;;12.77;74.64;100786.88;1940680;29;20140;-77
2022/09/03 04:44:55;;;;;;;14.35;6.35;;;;;;;12.77;74.18;100786.88;1940744;29;20131;-78
2022/09/03 04:46:02;;;;;;;14.25;6.68;;;;;;;12.72;75.51;100787.13;1940526;29;20030;-79
2022/09/03 04:46:59;;;;;;;15.13;6.78;;;;;;;12.67;76.21;100782.16;1940217;29;20388;-77
2022/09/03 04:48:01;;;;;;;15.13;6.32;;;;;;;12.70;74.67;100783.75;1947556;29;20041;-77
2022/09/03 04:48:58;;;;;;;11.77;5.90;;;;;;;12.71;74.57;100793.28;1947666;29;20123;-76
2022/09/03 04:49:56;;;;;;;9.80;5.78;;;;;;;12.68;76.52;100785.59;1940799;29;20032;-80
2022/09/03 04:50:54;;;;;;;10.07;5.57;;;;;;;12.64;76.49;100784.06;1940745;29;20138;-76
2022/09/03 04:51:52;;;;;;;12.65;6.53;;;;;;;12.65;75.36;100783.97;1948043;29;20048;-78
2022/09/03 04:52:49;;;;;;;11.38;5.95;;;;;;;12.67;75.01;100790.00;1941858;29;20062;-79
2022/09/03 04:53:53;;;;;;;13.13;6.00;;;;;;;12.61;77.06;100788.53;1934019;29;20024;-77
2022/09/03 04:54:50;;;;;;;12.80;6.10;;;;;;;12.61;76.12;100792.94;1940588;29;20039;-81
2022/09/03 04:55:48;;;;;;;13.27;6.38;;;;;;;12.64;75.67;100786.69;1940490;29;20074;-77
2022/09/03 04:56:45;;;;;;;10.27;6.10;;;;;;;12.65;75.94;100789.22;1940899;29;20064;-77
2022/09/03 04:57:43;;;;;;;12.30;6.53;;;;;;;12.65;75.83;100783.13;1941033;29;20111;-79
2022/09/03 04:58:42;;;;;;;14.95;6.78;;;;;;;12.65;76.50;100788.38;1940357;29;20072;-79
2022/09/03 04:59:41;;;;;;;12.10;6.55;;;;;;;12.69;74.90;100795.16;1948098;29;20089;-82
2022/09/03 05:00:39;;;;;;;10.50;6.25;;;;;;;12.70;74.58;100791.59;1948040;28;20079;-79
2022/09/03 05:01:39;;;;;;;10.73;6.22;;;;;;;12.69;74.87;100788.13;1941226;29;20474;-82
2022/09/03 05:02:36;;;;;;;11.68;6.47;;;;;;;12.69;74.92;100792.53;1933644;29;20360;-80
2022/09/03 05:03:36;;;;;;;13.20;6.60;;;;;;;12.68;75.20;100788.22;1940627;29;20036;-80
2022/09/03 05:04:33;;;;;;;10.48;6.53;;;;;;;12.69;75.04;100788.13;1940565;29;20049;-81
2022/09/03 05:05:32;;;;;;;12.27;6.72;;;;;;;12.66;75.71;100782.22;1933583;29;20111;-80
2022/09/03 05:06:32;;;;;;;10.57;6.32;;;;;;;12.70;74.83;100796.84;1940518;28;20074;-80